createdAt,value
2018-09-05T00:00:22.708Z,62.89
2018-09-05T00:02:50.303Z,62.80
2018-09-05T00:05:18.385Z,62.84
2018-09-05T00:07:45.323Z,62.89
2018-09-05T00:10:12.926Z,62.62
2018-09-05T00:12:40.656Z,62.55
2018-09-05T00:15:07.745Z,62.31
2018-09-05T00:17:35.984Z,62.68
2018-09-05T00:20:02.496Z,62.69
2018-09-05T00:22:33.915Z,63.80
2018-09-05T00:25:02.327Z,63.22
2018-09-05T00:27:29.712Z,63.28
2018-09-05T00:29:57.335Z,63.12
2018-09-05T00:32:25.584Z,62.25
2018-09-05T00:34:53.689Z,62.42
2018-09-05T00:37:21.738Z,63.36
2018-09-05T00:39:50.561Z,63.36
2018-09-05T00:42:19.868Z,63.49
2018-09-05T00:44:48.802Z,63.12
2018-09-05T00:47:16.895Z,62.81
2018-09-05T00:49:45.237Z,62.00
2018-09-05T00:52:12.911Z,61.94
2018-09-05T00:54:42.406Z,61.52
2018-09-05T00:57:12.739Z,61.76
2018-09-05T00:59:42.404Z,61.60
2018-09-05T01:02:10.477Z,61.46
2018-09-05T01:04:38.015Z,61.48
2018-09-05T01:07:07.236Z,61.46
2018-09-05T01:09:35.091Z,60.51
2018-09-05T01:12:03.386Z,61.58
2018-09-05T01:14:32.924Z,62.49
2018-09-05T01:17:02.476Z,61.92
2018-09-05T01:19:30.484Z,62.62
2018-09-05T01:24:30.760Z,60.92
2018-09-05T01:26:59.697Z,61.20
2018-09-05T01:29:27.155Z,60.94
2018-09-05T01:31:56.517Z,61.30
2018-09-05T01:34:25.454Z,61.05
2018-09-05T01:36:53.750Z,61.28
2018-09-05T01:39:22.248Z,61.19
2018-09-05T01:41:50.574Z,62.16
2018-09-05T01:44:18.367Z,62.20
2018-09-05T01:46:46.497Z,61.82
2018-09-05T01:49:13.962Z,61.30
2018-09-05T01:51:42.021Z,61.34
2018-09-05T01:54:09.705Z,60.46
2018-09-05T01:56:37.609Z,59.97
2018-09-05T01:59:06.750Z,59.86
2018-09-05T02:01:33.288Z,60.42
2018-09-05T02:04:02.487Z,60.58
2018-09-05T02:06:30.248Z,60.89
2018-09-05T02:08:59.047Z,61.67
2018-09-05T02:11:26.217Z,62.20
2018-09-05T02:13:54.144Z,61.72
2018-09-05T02:16:21.605Z,62.27
2018-09-05T02:18:50.140Z,61.90
2018-09-05T02:21:18.275Z,61.59
2018-09-05T02:23:47.819Z,60.44
2018-09-05T02:26:15.896Z,60.00
2018-09-05T02:28:44.473Z,60.54
2018-09-05T02:33:44.025Z,61.22
2018-09-05T02:36:13.179Z,59.48
2018-09-05T02:38:43.332Z,60.19
2018-09-05T02:41:11.748Z,60.42
2018-09-05T02:43:41.809Z,60.67
2018-09-05T02:46:09.315Z,60.63
2018-09-05T02:48:37.333Z,61.41
2018-09-05T02:51:04.690Z,61.72
2018-09-05T02:53:32.792Z,61.76
2018-09-05T02:56:00.927Z,61.62
2018-09-05T02:58:29.060Z,61.57
2018-09-05T03:00:57.239Z,61.13
2018-09-05T03:03:25.229Z,61.13
2018-09-05T03:05:53.787Z,61.12
2018-09-05T03:08:23.408Z,60.61
2018-09-05T03:10:50.688Z,61.36
2018-09-05T03:15:51.365Z,60.76
2018-09-05T03:18:19.225Z,61.05
2018-09-05T03:20:49.900Z,61.32
2018-09-05T03:25:49.809Z,61.91
2018-09-05T03:28:20.173Z,62.21
2018-09-05T03:30:47.274Z,62.45
2018-09-05T03:33:14.541Z,61.74
2018-09-05T03:35:44.445Z,61.93
2018-09-05T03:38:11.529Z,60.88
2018-09-05T03:43:10.855Z,60.35
2018-09-05T03:45:37.356Z,60.30
2018-09-05T03:48:06.808Z,60.20
2018-09-05T03:50:34.319Z,61.35
2018-09-05T03:53:02.888Z,61.61
2018-09-05T03:55:30.202Z,62.12
2018-09-05T03:57:59.289Z,62.07
2018-09-05T04:00:26.936Z,61.90
2018-09-05T04:02:56.340Z,61.52
2018-09-05T04:05:23.500Z,62.03
2018-09-05T04:07:51.843Z,61.32
2018-09-05T04:10:19.222Z,61.36
2018-09-05T04:12:46.639Z,61.27
2018-09-05T04:15:15.078Z,61.71
2018-09-05T04:17:43.490Z,60.08
2018-09-05T04:20:10.923Z,60.12
2018-09-05T04:22:37.378Z,60.36
2018-09-05T04:25:05.981Z,60.52
2018-09-05T04:27:34.752Z,61.13
2018-09-05T04:30:03.707Z,60.67
2018-09-05T04:32:31.315Z,60.40
2018-09-05T04:34:59.928Z,61.05
2018-09-05T04:37:27.908Z,60.82
2018-09-05T04:39:57.098Z,62.02
2018-09-05T04:42:25.588Z,61.86
2018-09-05T04:44:53.433Z,61.62
2018-09-05T04:47:21.031Z,61.61
2018-09-05T04:49:48.273Z,61.03
2018-09-05T04:52:16.139Z,58.98
2018-09-05T04:54:45.818Z,60.75
2018-09-05T04:57:13.596Z,61.68
2018-09-05T04:59:42.448Z,61.78
2018-09-05T05:02:10.646Z,62.18
2018-09-05T05:04:39.721Z,61.59
2018-09-05T05:07:07.692Z,59.89
2018-09-05T05:09:34.444Z,60.73
2018-09-05T05:12:01.512Z,60.91
2018-09-05T05:14:28.856Z,61.67
2018-09-05T05:16:56.637Z,60.97
2018-09-05T05:19:24.778Z,60.82
2018-09-05T05:21:52.028Z,60.74
2018-09-05T05:26:52.798Z,58.91
2018-09-05T05:29:21.011Z,59.04
2018-09-05T05:31:49.293Z,59.83
2018-09-05T05:34:15.785Z,59.59
2018-09-05T05:36:43.909Z,58.78
2018-09-05T05:39:12.030Z,60.85
2018-09-05T05:41:40.020Z,60.98
2018-09-05T05:44:08.631Z,61.00
2018-09-05T05:46:37.129Z,61.04
2018-09-05T05:49:04.313Z,59.83
2018-09-05T05:51:31.481Z,59.14
2018-09-05T05:53:58.801Z,59.75
2018-09-05T05:56:27.163Z,59.29
2018-09-05T05:58:54.551Z,58.26
2018-09-05T06:01:25.518Z,58.52
2018-09-05T06:03:53.637Z,58.10
2018-09-05T06:06:21.336Z,58.26
2018-09-05T06:08:48.737Z,57.91
2018-09-05T06:11:16.007Z,58.92
2018-09-05T06:13:44.730Z,58.45
2018-09-05T06:16:13.021Z,57.43
2018-09-05T06:18:40.681Z,58.08
2018-09-05T06:21:07.455Z,58.24
2018-09-05T06:23:35.169Z,56.16
2018-09-05T06:26:04.419Z,56.59
2018-09-05T06:28:32.971Z,57.97
2018-09-05T06:31:00.573Z,59.06
2018-09-05T06:33:27.795Z,58.29
2018-09-05T06:35:56.384Z,58.62
2018-09-05T06:38:24.041Z,57.98
2018-09-05T06:40:51.571Z,56.37
2018-09-05T06:43:20.958Z,55.58
2018-09-05T06:45:49.088Z,57.17
2018-09-05T06:48:18.916Z,56.47
2018-09-05T06:50:46.108Z,55.68
2018-09-05T06:53:14.319Z,55.40
2018-09-05T06:55:42.337Z,55.43
2018-09-05T06:58:10.073Z,55.60
2018-09-05T07:00:38.030Z,55.27
2018-09-05T07:03:04.849Z,54.84
2018-09-05T07:05:32.713Z,53.88
2018-09-05T07:08:00.049Z,52.89
2018-09-05T07:10:27.308Z,52.01
2018-09-05T07:12:55.500Z,53.76
2018-09-05T07:15:23.310Z,53.19
2018-09-05T07:17:52.366Z,53.32
2018-09-05T07:20:19.502Z,52.55
2018-09-05T07:22:49.123Z,52.06
2018-09-05T07:25:15.805Z,52.51
2018-09-05T07:27:43.891Z,51.62
2018-09-05T07:30:10.408Z,51.29
2018-09-05T07:32:37.857Z,50.92
2018-09-05T07:37:38.217Z,49.73
2018-09-05T07:40:06.550Z,49.80
2018-09-05T07:42:35.029Z,50.44
2018-09-05T07:45:03.794Z,49.21
2018-09-05T07:47:30.279Z,48.64
2018-09-05T07:49:58.371Z,49.08
2018-09-05T07:52:26.354Z,49.01
2018-09-05T07:54:54.855Z,47.62
2018-09-05T07:57:22.391Z,47.92
2018-09-05T07:59:50.813Z,47.56
2018-09-05T08:02:21.743Z,46.74
2018-09-05T08:04:49.702Z,47.55
2018-09-05T08:07:20.025Z,46.44
2018-09-05T08:09:47.357Z,45.06
2018-09-05T08:12:14.621Z,45.00
2018-09-05T08:14:41.868Z,45.26
2018-09-05T08:17:09.480Z,46.34
2018-09-05T08:19:36.761Z,43.83
2018-09-05T08:22:04.596Z,45.15
2018-09-05T08:24:33.429Z,44.24
2018-09-05T08:27:01.344Z,43.40
2018-09-05T08:29:29.574Z,43.48
2018-09-05T08:31:57.140Z,41.26
2018-09-05T08:34:24.481Z,43.05
2018-09-05T08:36:52.578Z,41.40
2018-09-05T08:41:53.372Z,42.56
2018-09-05T08:44:21.426Z,42.69
2018-09-05T08:46:50.896Z,41.92
2018-09-05T08:49:20.066Z,40.73
2018-09-05T08:51:46.873Z,40.46
2018-09-05T08:54:15.380Z,38.79
2018-09-05T08:59:14.783Z,39.16
2018-09-05T09:01:43.089Z,39.56
2018-09-05T09:04:09.788Z,39.50
2018-09-05T09:06:36.944Z,38.88
2018-09-05T09:09:05.399Z,39.47
2018-09-05T09:11:33.157Z,38.15
2018-09-05T09:14:01.606Z,38.02
2018-09-05T09:16:30.171Z,36.96
2018-09-05T09:18:57.535Z,38.62
2018-09-05T09:21:25.960Z,36.26
2018-09-05T09:23:54.766Z,37.12
2018-09-05T09:26:22.435Z,38.45
2018-09-05T09:28:50.453Z,37.74
2018-09-05T09:31:18.202Z,37.28
2018-09-05T09:33:45.394Z,35.35
2018-09-05T09:36:13.613Z,36.37
2018-09-05T09:38:40.781Z,35.36
2018-09-05T09:41:10.641Z,36.58
2018-09-05T09:43:39.054Z,34.63
2018-09-05T09:46:07.771Z,34.05
2018-09-05T09:48:36.596Z,33.69
2018-09-05T09:51:03.822Z,35.21
2018-09-05T09:53:34.651Z,34.70
2018-09-05T09:56:04.665Z,32.73
2018-09-05T10:01:03.281Z,33.30
2018-09-05T10:03:31.650Z,32.42
2018-09-05T10:05:59.554Z,31.66
2018-09-05T10:08:28.411Z,32.70
2018-09-05T10:10:55.809Z,33.50
2018-09-05T10:13:25.585Z,32.48
2018-09-05T10:15:54.868Z,33.55
2018-09-05T10:18:23.379Z,32.35
2018-09-05T10:20:50.472Z,31.63
2018-09-05T10:23:19.211Z,33.40
2018-09-05T10:25:47.940Z,33.27
2018-09-05T10:28:15.602Z,32.42
2018-09-05T10:30:44.293Z,32.54
2018-09-05T10:33:15.336Z,32.24
2018-09-05T10:35:43.484Z,30.62
2018-09-05T10:38:11.896Z,31.44
2018-09-05T10:40:40.223Z,31.11
2018-09-05T10:43:08.067Z,32.21
2018-09-05T10:48:09.479Z,31.86
2018-09-05T10:50:39.577Z,33.08
2018-09-05T10:53:07.292Z,31.98
2018-09-05T10:55:35.172Z,31.06
2018-09-05T10:58:02.475Z,32.06
2018-09-05T11:05:33.449Z,30.18
2018-09-05T11:08:01.462Z,28.65
2018-09-05T11:10:30.400Z,30.03
2018-09-05T11:12:59.733Z,30.13
2018-09-05T11:15:31.172Z,29.13
2018-09-05T11:23:03.685Z,32.08
2018-09-05T11:25:32.058Z,28.88
2018-09-05T11:28:01.006Z,29.39
2018-09-05T11:30:28.227Z,30.83
2018-09-05T11:32:58.069Z,27.07
2018-09-05T11:35:27.363Z,28.47
2018-09-05T11:37:55.573Z,28.27
2018-09-05T11:40:23.256Z,26.67
2018-09-05T11:42:52.612Z,25.75
2018-09-05T11:45:21.014Z,27.69
2018-09-05T11:47:49.162Z,25.74
2018-09-05T11:50:18.394Z,26.01
2018-09-05T11:52:46.359Z,26.75
2018-09-05T11:55:15.421Z,27.83
2018-09-05T11:57:43.170Z,27.38
2018-09-05T12:00:11.136Z,26.09
2018-09-05T12:02:38.631Z,27.61
2018-09-05T12:05:05.835Z,27.21
2018-09-05T12:07:33.591Z,25.43
2018-09-05T12:10:05.517Z,25.30
2018-09-05T12:12:32.318Z,27.71
2018-09-05T12:15:01.159Z,25.65
2018-09-05T12:17:29.073Z,25.54
2018-09-05T12:19:57.192Z,26.96
2018-09-05T12:22:24.393Z,27.69
2018-09-05T12:24:52.276Z,25.96
2018-09-05T12:27:20.256Z,26.73
2018-09-05T12:29:47.723Z,26.57
2018-09-05T12:32:15.034Z,26.54
2018-09-05T12:34:43.656Z,26.13
2018-09-05T12:37:12.188Z,25.33
2018-09-05T12:39:39.461Z,27.33
2018-09-05T12:42:06.623Z,26.69
2018-09-05T12:44:33.656Z,25.94
2018-09-05T12:47:01.192Z,25.11
2018-09-05T12:49:30.528Z,24.42
2018-09-05T12:51:58.709Z,25.56
2018-09-05T12:54:25.990Z,26.36
2018-09-05T12:56:54.660Z,24.27
2018-09-05T12:59:23.141Z,26.43
2018-09-05T13:01:51.822Z,26.21
2018-09-05T13:04:19.541Z,26.83
2018-09-05T13:06:46.793Z,26.25
2018-09-05T13:09:13.646Z,28.22
2018-09-05T13:11:41.032Z,26.75
2018-09-05T13:14:08.221Z,25.46
2018-09-05T13:19:11.545Z,26.61
2018-09-05T13:21:41.691Z,25.15
2018-09-05T13:24:08.958Z,25.10
2018-09-05T13:26:38.024Z,24.96
2018-09-05T13:29:05.673Z,24.19
2018-09-05T13:31:34.412Z,25.23
2018-09-05T13:34:02.417Z,26.57
2018-09-05T13:36:30.411Z,25.98
2018-09-05T13:38:58.752Z,24.98
2018-09-05T13:41:27.264Z,25.38
2018-09-05T13:43:55.935Z,25.05
2018-09-05T13:46:24.529Z,25.48
2018-09-05T13:48:52.739Z,25.85
2018-09-05T13:53:53.052Z,27.11
2018-09-05T13:56:22.743Z,25.16
2018-09-05T13:58:51.656Z,26.49
2018-09-05T14:01:21.118Z,26.17
2018-09-05T14:03:49.550Z,25.80
2018-09-05T14:06:18.188Z,26.45
2018-09-05T14:08:45.605Z,27.21
2018-09-05T14:11:13.839Z,27.25
2018-09-05T14:13:41.867Z,27.60
2018-09-05T14:16:08.598Z,28.68
2018-09-05T14:18:36.656Z,27.29
2018-09-05T14:21:04.269Z,27.23
2018-09-05T14:23:32.505Z,26.77
2018-09-05T14:26:01.175Z,28.68
2018-09-05T14:28:29.152Z,29.58
2018-09-05T14:30:57.811Z,28.67
2018-09-05T14:33:25.700Z,29.74
2018-09-05T14:35:54.489Z,30.66
2018-09-05T14:38:21.343Z,30.43
2018-09-05T14:40:49.114Z,30.32
2018-09-05T14:43:16.346Z,32.22
2018-09-05T14:45:45.054Z,32.21
2018-09-05T14:48:15.397Z,30.25
2018-09-05T14:50:44.484Z,30.82
2018-09-05T14:53:13.372Z,30.69
2018-09-05T14:55:40.073Z,29.79
2018-09-05T14:58:07.685Z,29.58
2018-09-05T15:00:36.431Z,30.18
2018-09-05T15:03:05.119Z,29.47
2018-09-05T15:05:33.728Z,29.62
2018-09-05T15:08:01.841Z,30.28
2018-09-05T15:10:28.891Z,28.74
2018-09-05T15:12:56.514Z,31.04
2018-09-05T15:15:25.332Z,30.14
2018-09-05T15:17:53.296Z,31.68
2018-09-05T15:20:20.655Z,31.72
2018-09-05T15:22:47.449Z,29.51
2018-09-05T15:25:16.413Z,31.20
2018-09-05T15:27:44.241Z,31.96
2018-09-05T15:30:10.838Z,31.41
2018-09-05T15:32:38.290Z,30.78
2018-09-05T15:35:04.816Z,30.30
2018-09-05T15:37:33.479Z,32.23
2018-09-05T15:40:01.589Z,31.64
2018-09-05T15:42:30.195Z,31.59
2018-09-05T15:44:57.702Z,31.23
2018-09-05T15:47:25.829Z,31.83
2018-09-05T15:49:53.099Z,31.45
2018-09-05T15:52:20.676Z,31.90
2018-09-05T15:54:47.948Z,32.57
2018-09-05T15:57:17.766Z,34.50
2018-09-05T15:59:45.823Z,35.59
2018-09-05T16:02:15.371Z,37.65
2018-09-05T16:04:43.949Z,39.12
2018-09-05T16:07:11.295Z,40.27
2018-09-05T16:09:38.936Z,39.93
2018-09-05T16:17:11.492Z,41.36
2018-09-05T16:19:39.876Z,40.86
2018-09-05T16:22:08.045Z,40.33
2018-09-05T16:24:36.259Z,41.10
2018-09-05T16:27:04.114Z,41.06
2018-09-05T16:29:32.382Z,41.15
2018-09-05T16:32:00.557Z,41.34
2018-09-05T16:34:29.755Z,41.47
2018-09-05T16:36:57.608Z,42.55
2018-09-05T16:39:26.308Z,43.36
2018-09-05T16:44:25.459Z,44.74
2018-09-05T16:49:25.619Z,43.98
2018-09-05T16:51:53.252Z,43.93
2018-09-05T16:54:20.564Z,43.64
2018-09-05T16:56:51.308Z,43.80
2018-09-05T16:59:19.331Z,43.48
2018-09-05T17:01:48.684Z,45.29
2018-09-05T17:04:16.607Z,45.42
2018-09-05T17:09:17.868Z,46.20
2018-09-05T17:11:46.664Z,46.02
2018-09-05T17:14:15.159Z,44.61
2018-09-05T17:16:43.689Z,45.01
2018-09-05T17:19:13.059Z,45.53
2018-09-05T17:21:40.832Z,46.18
2018-09-05T17:24:08.612Z,46.06
2018-09-05T17:26:37.091Z,45.28
2018-09-05T17:29:05.784Z,46.14
2018-09-05T17:31:32.728Z,45.93
2018-09-05T17:34:00.809Z,43.73
2018-09-05T17:36:29.186Z,45.54
2018-09-05T17:38:56.942Z,45.08
2018-09-05T17:41:25.556Z,45.00
2018-09-05T17:43:53.055Z,45.74
2018-09-05T17:46:20.952Z,45.77
2018-09-05T17:48:49.430Z,45.42
2018-09-05T17:51:16.555Z,46.51
2018-09-05T17:53:44.780Z,47.04
2018-09-05T17:56:12.939Z,46.90
2018-09-05T17:58:41.589Z,47.57
2018-09-05T18:01:09.868Z,47.37
2018-09-05T18:03:38.787Z,46.74
2018-09-05T18:06:05.821Z,47.10
2018-09-05T18:08:33.790Z,47.29
2018-09-05T18:11:01.756Z,48.09
2018-09-05T18:13:28.766Z,47.94
2018-09-05T18:21:01.560Z,48.21
2018-09-05T18:23:29.333Z,48.41
2018-09-05T18:25:57.576Z,49.17
2018-09-05T18:28:24.066Z,48.87
2018-09-05T18:30:54.398Z,47.83
2018-09-05T18:33:21.513Z,47.76
2018-09-05T18:35:49.747Z,49.27
2018-09-05T18:38:16.774Z,48.71
2018-09-05T18:40:44.677Z,49.80
2018-09-05T18:43:13.351Z,49.76
2018-09-05T18:45:40.941Z,50.83
2018-09-05T18:48:08.800Z,50.21
2018-09-05T18:50:37.416Z,50.66
2018-09-05T18:53:07.348Z,51.29
2018-09-05T18:55:35.689Z,50.60
2018-09-05T18:58:04.216Z,51.32
2018-09-05T19:00:31.678Z,51.53
2018-09-05T19:03:00.708Z,51.66
2018-09-05T19:05:28.981Z,52.06
2018-09-05T19:07:59.041Z,52.77
2018-09-05T19:10:25.909Z,53.34
2018-09-05T19:12:54.222Z,53.44
2018-09-05T19:15:22.623Z,52.95
2018-09-05T19:17:50.565Z,53.00
2018-09-05T19:22:51.017Z,52.74
2018-09-05T19:25:19.745Z,53.46
2018-09-05T19:27:47.815Z,53.81
2018-09-05T19:30:15.586Z,53.12
2018-09-05T19:32:43.744Z,53.86
2018-09-05T19:35:11.841Z,52.98
2018-09-05T19:37:40.078Z,54.15
2018-09-05T19:42:40.867Z,53.56
2018-09-05T19:45:09.699Z,53.80
2018-09-05T19:47:36.714Z,54.16
2018-09-05T19:50:07.451Z,53.78
2018-09-05T19:52:35.721Z,53.24
2018-09-05T19:55:05.541Z,53.38
2018-09-05T19:57:34.402Z,53.50
2018-09-05T20:00:02.313Z,54.54
2018-09-05T20:02:29.943Z,54.55
2018-09-05T20:04:59.372Z,55.55
2018-09-05T20:07:28.269Z,55.84
2018-09-05T20:09:56.746Z,55.86
2018-09-05T20:12:24.663Z,55.53
2018-09-05T20:14:52.595Z,55.10
2018-09-05T20:17:20.570Z,55.65
2018-09-05T20:19:49.452Z,55.28
2018-09-05T20:22:15.918Z,55.18
2018-09-05T20:24:43.949Z,54.50
2018-09-05T20:27:11.003Z,55.37
2018-09-05T20:29:39.927Z,56.21
2018-09-05T20:32:08.074Z,56.29
2018-09-05T20:34:35.404Z,56.56
2018-09-05T20:37:03.770Z,56.36
2018-09-05T20:39:32.596Z,56.85
2018-09-05T20:42:00.404Z,55.66
2018-09-05T20:44:28.238Z,55.81
2018-09-05T20:46:56.665Z,54.96
2018-09-05T20:49:24.444Z,55.19
2018-09-05T20:51:52.109Z,56.36
2018-09-05T20:54:52.955Z,56.66
2018-09-05T20:57:21.261Z,56.70
2018-09-05T20:59:49.957Z,56.55
2018-09-05T21:02:16.590Z,55.74
2018-09-05T21:04:44.046Z,56.62
2018-09-05T21:07:10.721Z,56.36
2018-09-05T21:09:39.921Z,56.64
2018-09-05T21:12:08.034Z,55.44
2018-09-05T21:14:35.077Z,55.77
2018-09-05T21:17:03.792Z,56.38
2018-09-05T21:19:32.173Z,55.88
2018-09-05T21:22:00.754Z,55.76
2018-09-05T21:24:29.333Z,56.48
2018-09-05T21:26:57.832Z,57.05
2018-09-05T21:29:26.511Z,57.79
2018-09-05T21:34:27.063Z,59.67
2018-09-05T21:36:55.714Z,59.16
2018-09-05T21:39:24.653Z,58.21
2018-09-05T21:44:23.757Z,57.46
2018-09-05T21:46:51.445Z,57.22
2018-09-05T21:49:20.590Z,58.02
2018-09-05T21:51:48.745Z,58.37
2018-09-05T21:54:17.750Z,58.40
2018-09-05T21:56:45.075Z,58.06
2018-09-05T21:59:14.404Z,58.17
2018-09-05T22:01:43.947Z,58.95
2018-09-05T22:04:12.675Z,58.63
2018-09-05T22:06:41.487Z,59.21
2018-09-05T22:09:10.572Z,59.36
2018-09-05T22:11:39.828Z,60.03
2018-09-05T22:14:06.920Z,59.49
2018-09-05T22:16:34.925Z,59.28
2018-09-05T22:19:02.140Z,58.97
2018-09-05T22:21:29.221Z,59.33
2018-09-05T22:23:58.034Z,59.09
2018-09-05T22:26:25.461Z,59.25
2018-09-05T22:28:52.856Z,59.69
2018-09-05T22:31:19.954Z,59.31
2018-09-05T22:33:51.798Z,59.47
2018-09-05T22:36:19.899Z,60.22
2018-09-05T22:38:47.263Z,59.45
2018-09-05T22:41:14.932Z,60.51
2018-09-05T22:43:45.327Z,61.05
2018-09-05T22:46:15.607Z,61.26
2018-09-05T22:48:44.429Z,60.44
2018-09-05T22:51:11.940Z,59.91
2018-09-05T22:53:39.496Z,58.63
2018-09-05T22:56:07.887Z,58.64
2018-09-05T22:58:35.842Z,59.68
2018-09-05T23:01:05.875Z,59.37
2018-09-05T23:03:35.015Z,59.69
2018-09-05T23:06:03.097Z,60.44
2018-09-05T23:08:31.831Z,60.37
2018-09-05T23:11:00.148Z,59.80
2018-09-05T23:13:28.666Z,59.45
2018-09-05T23:15:56.492Z,59.27
2018-09-05T23:18:24.776Z,58.72
2018-09-05T23:20:52.354Z,60.59
2018-09-05T23:23:20.426Z,61.45
2018-09-05T23:25:49.043Z,60.67
2018-09-05T23:28:17.313Z,60.80
2018-09-05T23:30:46.456Z,59.26
2018-09-05T23:33:15.127Z,60.53
2018-09-05T23:35:43.446Z,60.12
2018-09-05T23:38:12.539Z,59.49
2018-09-05T23:40:40.348Z,59.67
2018-09-05T23:43:08.052Z,59.61
2018-09-05T23:45:35.733Z,60.27
2018-09-05T23:48:04.436Z,61.09
2018-09-05T23:50:32.624Z,63.25
2018-09-05T23:53:00.163Z,62.67
2018-09-05T23:55:28.143Z,63.10
2018-09-05T23:57:55.748Z,63.56
